sensor_id;sensor_type;location;lat;lon;timestamp;pressure;altitude;pressure_sealevel;temperature;humidity
51123;BME280;37162;41.724;13.346;2023-03-12T00:00:46;95576.03;;;16.82;65.87
51123;BME280;37162;41.724;13.346;2023-03-12T00:03:12;95578.72;;;16.82;65.71
51123;BME280;37162;41.724;13.346;2023-03-12T00:05:42;95567.41;;;16.75;65.84
51123;BME280;37162;41.724;13.346;2023-03-12T00:08:08;95581.66;;;16.81;65.81
51123;BME280;37162;41.724;13.346;2023-03-12T00:10:34;95585.16;;;16.81;65.58
51123;BME280;37162;41.724;13.346;2023-03-12T00:13:00;95590.78;;;16.80;65.85
51123;BME280;37162;41.724;13.346;2023-03-12T00:15:26;95585.94;;;16.77;65.65
51123;BME280;37162;41.724;13.346;2023-03-12T00:17:52;95600.44;;;16.81;65.87
51123;BME280;37162;41.724;13.346;2023-03-12T00:20:18;95606.88;;;16.80;65.77
51123;BME280;37162;41.724;13.346;2023-03-12T00:22:44;95601.50;;;16.80;65.90
51123;BME280;37162;41.724;13.346;2023-03-12T00:25:16;95595.28;;;16.74;66.10
51123;BME280;37162;41.724;13.346;2023-03-12T00:27:42;95604.19;;;16.80;65.77
51123;BME280;37162;41.724;13.346;2023-03-12T00:30:09;95604.69;;;16.77;66.15
51123;BME280;37162;41.724;13.346;2023-03-12T00:32:35;95610.34;;;16.80;66.02
51123;BME280;37162;41.724;13.346;2023-03-12T00:35:01;95604.19;;;16.80;66.02
51123;BME280;37162;41.724;13.346;2023-03-12T00:37:27;95613.03;;;16.80;65.98
51123;BME280;37162;41.724;13.346;2023-03-12T00:39:52;95619.44;;;16.79;65.80
51123;BME280;37162;41.724;13.346;2023-03-12T00:42:18;95607.69;;;16.80;65.77
51123;BME280;37162;41.724;13.346;2023-03-12T00:44:44;95604.44;;;16.78;65.79
51123;BME280;37162;41.724;13.346;2023-03-12T00:47:09;95605.50;;;16.77;65.57
51123;BME280;37162;41.724;13.346;2023-03-12T00:49:35;95604.69;;;16.77;65.81
51123;BME280;37162;41.724;13.346;2023-03-12T00:52:01;95608.47;;;16.76;65.62
51123;BME280;37162;41.724;13.346;2023-03-12T00:54:26;95609.25;;;16.76;65.74
51123;BME280;37162;41.724;13.346;2023-03-12T00:56:52;95601.41;;;16.70;65.51
51123;BME280;37162;41.724;13.346;2023-03-12T00:59:20;95606.56;;;16.76;65.71
51123;BME280;37162;41.724;13.346;2023-03-12T01:01:46;95612.19;;;16.75;65.84
51123;BME280;37162;41.724;13.346;2023-03-12T01:04:12;95611.38;;;16.74;65.68
51123;BME280;37162;41.724;13.346;2023-03-12T01:06:37;95616.75;;;16.74;66.00
51123;BME280;37162;41.724;13.346;2023-03-12T01:09:04;95623.97;;;16.74;66.01
51123;BME280;37162;41.724;13.346;2023-03-12T01:11:32;95633.09;;;16.73;65.96
51123;BME280;37162;41.724;13.346;2023-03-12T01:14:02;95634.19;;;16.72;65.93
51123;BME280;37162;41.724;13.346;2023-03-12T01:16:28;95626.88;;;16.67;65.88
51123;BME280;37162;41.724;13.346;2023-03-12T01:18:55;95641.94;;;16.73;65.79
51123;BME280;37162;41.724;13.346;2023-03-12T01:21:22;95644.63;;;16.73;65.91
51123;BME280;37162;41.724;13.346;2023-03-12T01:23:47;95647.31;;;16.73;65.85
51123;BME280;37162;41.724;13.346;2023-03-12T01:26:13;95646.25;;;16.74;66.00
51123;BME280;37162;41.724;13.346;2023-03-12T01:28:39;95638.19;;;16.74;66.01
51123;BME280;37162;41.724;13.346;2023-03-12T01:31:11;95624.78;;;16.74;66.31
51123;BME280;37162;41.724;13.346;2023-03-12T01:33:37;95617.25;;;16.71;65.96
51123;BME280;37162;41.724;13.346;2023-03-12T01:36:03;95618.38;;;16.75;66.07
51123;BME280;37162;41.724;13.346;2023-03-12T01:38:29;95607.59;;;16.70;65.77
51123;BME280;37162;41.724;13.346;2023-03-12T01:40:54;95611.13;;;16.76;65.65
51123;BME280;37162;41.724;13.346;2023-03-12T01:43:32;95607.66;;;16.75;66.02
51123;BME280;37162;41.724;13.346;2023-03-12T01:48:40;95610.34;;;16.75;65.76
51123;BME280;37162;41.724;13.346;2023-03-12T01:51:08;95609.50;;;16.75;65.80
51123;BME280;37162;41.724;13.346;2023-03-12T01:53:34;95612.19;;;16.75;65.87
51123;BME280;37162;41.724;13.346;2023-03-12T01:56:01;95609.50;;;16.75;65.76
51123;BME280;37162;41.724;13.346;2023-03-12T01:58:29;95605.78;;;16.76;65.92
51123;BME280;37162;41.724;13.346;2023-03-12T02:00:56;95604.13;;;16.75;65.84
51123;BME280;37162;41.724;13.346;2023-03-12T02:03:22;95598.78;;;16.75;65.99
51123;BME280;37162;41.724;13.346;2023-03-12T02:05:52;95600.66;;;16.74;65.86
51123;BME280;37162;41.724;13.346;2023-03-12T02:08:19;95600.66;;;16.74;65.89
51123;BME280;37162;41.724;13.346;2023-03-12T02:10:46;95606.00;;;16.74;65.86
51123;BME280;37162;41.724;13.346;2023-03-12T02:13:12;95612.19;;;16.75;65.88
51123;BME280;37162;41.724;13.346;2023-03-12T02:15:38;95614.06;;;16.74;65.93
51123;BME280;37162;41.724;13.346;2023-03-12T02:18:05;95614.06;;;16.74;65.95
51123;BME280;37162;41.724;13.346;2023-03-12T02:20:38;95611.38;;;16.74;65.94
51123;BME280;37162;41.724;13.346;2023-03-12T02:23:15;95612.19;;;16.75;65.86
51123;BME280;37162;41.724;13.346;2023-03-12T02:25:45;95615.69;;;16.75;66.04
51123;BME280;37162;41.724;13.346;2023-03-12T02:28:14;95608.47;;;16.76;66.22
51123;BME280;37162;41.724;13.346;2023-03-12T02:30:42;95605.78;;;16.76;66.08
51123;BME280;37162;41.724;13.346;2023-03-12T02:33:09;95610.34;;;16.75;66.19
51123;BME280;37162;41.724;13.346;2023-03-12T02:35:36;95611.13;;;16.76;65.76
51123;BME280;37162;41.724;13.346;2023-03-12T02:38:03;95608.47;;;16.76;66.02
51123;BME280;37162;41.724;13.346;2023-03-12T02:40:33;95608.47;;;16.76;65.98
51123;BME280;37162;41.724;13.346;2023-03-12T02:42:59;95604.69;;;16.72;65.92
51123;BME280;37162;41.724;13.346;2023-03-12T02:45:26;95607.66;;;16.75;65.95
51123;BME280;37162;41.724;13.346;2023-03-12T02:47:53;95607.66;;;16.75;65.90
51123;BME280;37162;41.724;13.346;2023-03-12T02:50:19;95604.97;;;16.75;65.94
51123;BME280;37162;41.724;13.346;2023-03-12T02:52:45;95609.50;;;16.75;65.70
51123;BME280;37162;41.724;13.346;2023-03-12T02:55:10;95609.50;;;16.75;65.84
51123;BME280;37162;41.724;13.346;2023-03-12T02:57:36;95615.13;;;16.73;65.88
51123;BME280;37162;41.724;13.346;2023-03-12T03:00:12;95617.81;;;16.73;65.67
51123;BME280;37162;41.724;13.346;2023-03-12T03:02:39;95606.50;;;16.66;65.81
51123;BME280;37162;41.724;13.346;2023-03-12T03:05:06;95613.72;;;16.66;65.72
51123;BME280;37162;41.724;13.346;2023-03-12T03:07:32;95631.50;;;16.72;65.86
51123;BME280;37162;41.724;13.346;2023-03-12T03:09:57;95632.78;;;16.69;65.68
51123;BME280;37162;41.724;13.346;2023-03-12T03:12:32;95631.50;;;16.72;65.98
51123;BME280;37162;41.724;13.346;2023-03-12T03:14:58;95632.53;;;16.71;65.80
51123;BME280;37162;41.724;13.346;2023-03-12T03:17:23;95639.53;;;16.72;65.51
51123;BME280;37162;41.724;13.346;2023-03-12T03:19:53;95634.91;;;16.67;65.77
51123;BME280;37162;41.724;13.346;2023-03-12T03:22:20;95639.53;;;16.72;65.60
51123;BME280;37162;41.724;13.346;2023-03-12T03:24:46;95644.06;;;16.71;65.75
51123;BME280;37162;41.724;13.346;2023-03-12T03:27:12;95637.91;;;16.71;65.87
51123;BME280;37162;41.724;13.346;2023-03-12T03:29:38;95640.59;;;16.71;65.71
51123;BME280;37162;41.724;13.346;2023-03-12T03:32:04;95637.09;;;16.70;65.62
51123;BME280;37162;41.724;13.346;2023-03-12T03:34:29;95634.41;;;16.70;65.58
51123;BME280;37162;41.724;13.346;2023-03-12T03:36:55;95641.88;;;16.68;65.91
51123;BME280;37162;41.724;13.346;2023-03-12T03:39:20;95645.13;;;16.70;65.81
51123;BME280;37162;41.724;13.346;2023-03-12T03:41:46;95647.00;;;16.70;65.74
51123;BME280;37162;41.724;13.346;2023-03-12T03:44:12;95651.53;;;16.69;65.78
51123;BME280;37162;41.724;13.346;2023-03-12T03:46:38;95651.31;;;16.71;65.72
51123;BME280;37162;41.724;13.346;2023-03-12T03:49:05;95654.22;;;16.69;65.77
51123;BME280;37162;41.724;13.346;2023-03-12T03:51:31;95654.22;;;16.69;65.64
51123;BME280;37162;41.724;13.346;2023-03-12T03:54:08;95655.31;;;16.68;65.78
51123;BME280;37162;41.724;13.346;2023-03-12T03:56:33;95656.91;;;16.69;65.59
51123;BME280;37162;41.724;13.346;2023-03-12T03:58:59;95663.84;;;16.65;65.72
51123;BME280;37162;41.724;13.346;2023-03-12T04:01:26;95666.03;;;16.68;65.58
51123;BME280;37162;41.724;13.346;2023-03-12T04:03:52;95670.84;;;16.66;65.55
51123;BME280;37162;41.724;13.346;2023-03-12T04:06:18;95675.69;;;16.69;65.74
51123;BME280;37162;41.724;13.346;2023-03-12T04:08:43;95685.59;;;16.69;65.98
51123;BME280;37162;41.724;13.346;2023-03-12T04:11:14;95687.22;;;16.70;65.68
51123;BME280;37162;41.724;13.346;2023-03-12T04:13:40;95684.00;;;16.68;65.78
51123;BME280;37162;41.724;13.346;2023-03-12T04:16:06;95691.22;;;16.67;65.88
51123;BME280;37162;41.724;13.346;2023-03-12T04:18:33;95693.66;;;16.69;65.80
51123;BME280;37162;41.724;13.346;2023-03-12T04:21:00;95702.50;;;16.69;65.75
51123;BME280;37162;41.724;13.346;2023-03-12T04:23:26;95700.63;;;16.70;66.01
51123;BME280;37162;41.724;13.346;2023-03-12T04:25:51;95697.94;;;16.70;65.81
51123;BME280;37162;41.724;13.346;2023-03-12T04:28:16;95698.78;;;16.70;65.99
51123;BME280;37162;41.724;13.346;2023-03-12T04:30:42;95705.75;;;16.71;65.98
51123;BME280;37162;41.724;13.346;2023-03-12T04:33:07;95706.81;;;16.70;65.97
51123;BME280;37162;41.724;13.346;2023-03-12T04:35:33;95714.03;;;16.70;65.72
51123;BME280;37162;41.724;13.346;2023-03-12T04:38:02;95707.63;;;16.71;65.78
51123;BME280;37162;41.724;13.346;2023-03-12T04:40:28;95706.81;;;16.70;65.65
51123;BME280;37162;41.724;13.346;2023-03-12T04:42:53;95712.69;;;16.67;66.01
51123;BME280;37162;41.724;13.346;2023-03-12T04:45:19;95721.53;;;16.68;65.74
51123;BME280;37162;41.724;13.346;2023-03-12T04:47:44;95714.56;;;16.67;65.67
51123;BME280;37162;41.724;13.346;2023-03-12T04:50:11;95718.59;;;16.69;65.64
51123;BME280;37162;41.724;13.346;2023-03-12T04:52:37;95706.00;;;16.70;65.48
51123;BME280;37162;41.724;13.346;2023-03-12T04:55:03;95707.59;;;16.66;65.79
51123;BME280;37162;41.724;13.346;2023-03-12T04:57:29;95709.50;;;16.70;65.60
51123;BME280;37162;41.724;13.346;2023-03-12T04:59:55;95719.13;;;16.66;65.63
51123;BME280;37162;41.724;13.346;2023-03-12T05:02:20;95723.97;;;16.69;65.87
51123;BME280;37162;41.724;13.346;2023-03-12T05:04:46;95727.44;;;16.70;65.68
51123;BME280;37162;41.724;13.346;2023-03-12T05:07:11;95727.72;;;16.68;65.59
51123;BME280;37162;41.724;13.346;2023-03-12T05:09:36;95727.72;;;16.68;65.81
51123;BME280;37162;41.724;13.346;2023-03-12T05:12:02;95735.75;;;16.68;65.59
51123;BME280;37162;41.724;13.346;2023-03-12T05:14:41;95725.03;;;16.68;65.49
51123;BME280;37162;41.724;13.346;2023-03-12T05:17:06;95722.63;;;16.67;65.40
51123;BME280;37162;41.724;13.346;2023-03-12T05:19:32;95731.19;;;16.69;65.65
51123;BME280;37162;41.724;13.346;2023-03-12T05:21:57;95735.75;;;16.68;65.67
51123;BME280;37162;41.724;13.346;2023-03-12T05:24:22;95733.06;;;16.68;65.81
51123;BME280;37162;41.724;13.346;2023-03-12T05:26:48;95730.34;;;16.63;65.65
51123;BME280;37162;41.724;13.346;2023-03-12T05:29:14;95748.09;;;16.69;65.72
51123;BME280;37162;41.724;13.346;2023-03-12T05:31:39;95744.59;;;16.69;65.68
51123;BME280;37162;41.724;13.346;2023-03-12T05:34:05;95758.00;;;16.69;65.48
51123;BME280;37162;41.724;13.346;2023-03-12T05:36:30;95745.69;;;16.68;65.53
51123;BME280;37162;41.724;13.346;2023-03-12T05:38:56;95754.53;;;16.68;65.49
51123;BME280;37162;41.724;13.346;2023-03-12T05:41:24;95759.88;;;16.68;65.39
51123;BME280;37162;41.724;13.346;2023-03-12T05:43:54;95759.88;;;16.68;65.36
51123;BME280;37162;41.724;13.346;2023-03-12T05:46:21;95745.94;;;16.66;65.35
51123;BME280;37162;41.724;13.346;2023-03-12T05:48:46;95756.66;;;16.66;65.36
51123;BME280;37162;41.724;13.346;2023-03-12T05:51:12;95759.34;;;16.66;65.49
51123;BME280;37162;41.724;13.346;2023-03-12T05:53:37;95760.13;;;16.61;65.41
51123;BME280;37162;41.724;13.346;2023-03-12T05:56:05;95769.50;;;16.64;65.57
51123;BME280;37162;41.724;13.346;2023-03-12T05:58:31;95768.69;;;16.64;65.44
51123;BME280;37162;41.724;13.346;2023-03-12T06:00:57;95772.19;;;16.64;65.56
51123;BME280;37162;41.724;13.346;2023-03-12T06:03:23;95779.44;;;16.64;65.64
51123;BME280;37162;41.724;13.346;2023-03-12T06:05:48;95779.66;;;16.57;65.55
51123;BME280;37162;41.724;13.346;2023-03-12T06:08:14;95796.59;;;16.63;65.64
51123;BME280;37162;41.724;13.346;2023-03-12T06:10:39;95796.31;;;16.64;65.49
51123;BME280;37162;41.724;13.346;2023-03-12T06:13:05;95800.06;;;16.63;65.59
51123;BME280;37162;41.724;13.346;2023-03-12T06:15:31;95803.25;;;16.60;65.58
51123;BME280;37162;41.724;13.346;2023-03-12T06:17:56;95807.84;;;16.65;65.52
51123;BME280;37162;41.724;13.346;2023-03-12T06:20:21;95804.38;;;16.64;65.51
51123;BME280;37162;41.724;13.346;2023-03-12T06:22:47;95809.50;;;16.66;65.41
51123;BME280;37162;41.724;13.346;2023-03-12T06:25:12;95823.72;;;16.66;65.44
51123;BME280;37162;41.724;13.346;2023-03-12T06:27:38;95829.63;;;16.68;65.62
51123;BME280;37162;41.724;13.346;2023-03-12T06:30:04;95830.44;;;16.69;65.51
51123;BME280;37162;41.724;13.346;2023-03-12T06:32:29;95830.69;;;16.67;64.76
51123;BME280;37162;41.724;13.346;2023-03-12T06:34:55;95833.38;;;16.67;64.28
51123;BME280;37162;41.724;13.346;2023-03-12T06:37:20;95833.38;;;16.67;64.22
51123;BME280;37162;41.724;13.346;2023-03-12T06:39:46;95844.09;;;16.67;63.61
51123;BME280;37162;41.724;13.346;2023-03-12T06:42:11;95851.88;;;16.69;64.00
51123;BME280;37162;41.724;13.346;2023-03-12T06:44:38;95847.03;;;16.66;64.15
51123;BME280;37162;41.724;13.346;2023-03-12T06:47:04;95852.94;;;16.68;63.78
51123;BME280;37162;41.724;13.346;2023-03-12T06:49:30;95861.81;;;16.68;63.68
51123;BME280;37162;41.724;13.346;2023-03-12T06:51:57;95864.47;;;16.68;63.45
51123;BME280;37162;41.724;13.346;2023-03-12T06:54:23;95871.22;;;16.71;63.52
51123;BME280;37162;41.724;13.346;2023-03-12T06:56:48;95881.72;;;16.72;63.55
51123;BME280;37162;41.724;13.346;2023-03-12T06:59:13;95880.66;;;16.73;63.63
51123;BME280;37162;41.724;13.346;2023-03-12T07:01:39;95874.22;;;16.74;63.52
51123;BME280;37162;41.724;13.346;2023-03-12T07:04:04;95880.16;;;16.76;63.61
51123;BME280;37162;41.724;13.346;2023-03-12T07:06:30;95880.72;;;16.78;63.65
51123;BME280;37162;41.724;13.346;2023-03-12T07:08:55;95885.00;;;16.79;63.99
51123;BME280;37162;41.724;13.346;2023-03-12T07:11:21;95886.66;;;16.80;63.58
51123;BME280;37162;41.724;13.346;2023-03-12T07:13:46;95894.97;;;16.84;63.94
51123;BME280;37162;41.724;13.346;2023-03-12T07:16:13;95891.44;;;16.78;64.54
51123;BME280;37162;41.724;13.346;2023-03-12T07:18:39;95908.75;;;16.93;65.01
51123;BME280;37162;41.724;13.346;2023-03-12T07:21:05;95912.00;;;16.95;65.29
51123;BME280;37162;41.724;13.346;2023-03-12T07:23:30;95924.34;;;16.96;65.29
51123;BME280;37162;41.724;13.346;2023-03-12T07:25:56;95914.69;;;16.95;64.51
51123;BME280;37162;41.724;13.346;2023-03-12T07:28:21;95918.72;;;16.97;64.07
51123;BME280;37162;41.724;13.346;2023-03-12T07:30:47;95938.06;;;16.99;62.06
51123;BME280;37162;41.724;13.346;2023-03-12T07:33:19;95932.41;;;16.96;61.77
51123;BME280;37162;41.724;13.346;2023-03-12T07:35:46;95932.13;;;16.97;62.28
51123;BME280;37162;41.724;13.346;2023-03-12T07:38:12;95944.19;;;16.95;61.23
51123;BME280;37162;41.724;13.346;2023-03-12T07:40:38;95943.94;;;16.96;61.88
51123;BME280;37162;41.724;13.346;2023-03-12T07:43:04;95952.78;;;16.97;61.61
51123;BME280;37162;41.724;13.346;2023-03-12T07:45:36;95950.09;;;16.97;61.72
51123;BME280;37162;41.724;13.346;2023-03-12T07:48:02;95958.47;;;17.00;61.45
51123;BME280;37162;41.724;13.346;2023-03-12T07:50:27;95958.75;;;16.99;61.49
51123;BME280;37162;41.724;13.346;2023-03-12T07:52:53;95956.38;;;17.07;61.59
51123;BME280;37162;41.724;13.346;2023-03-12T07:55:18;95962.31;;;17.09;61.22
51123;BME280;37162;41.724;13.346;2023-03-12T07:57:44;95962.06;;;17.11;60.86
51123;BME280;37162;41.724;13.346;2023-03-12T08:00:10;95963.44;;;17.14;60.90
51123;BME280;37162;41.724;13.346;2023-03-12T08:02:36;95967.47;;;17.16;60.82
51123;BME280;37162;41.724;13.346;2023-03-12T08:05:01;95969.66;;;17.19;61.22
51123;BME280;37162;41.724;13.346;2023-03-12T08:07:27;95974.53;;;17.22;61.67
51123;BME280;37162;41.724;13.346;2023-03-12T08:10:01;95982.81;;;17.21;60.61
51123;BME280;37162;41.724;13.346;2023-03-12T08:12:27;95983.13;;;17.24;60.27
51123;BME280;37162;41.724;13.346;2023-03-12T08:14:52;95982.41;;;17.34;61.65
51123;BME280;37162;41.724;13.346;2023-03-12T08:17:18;95981.13;;;17.36;62.10
51123;BME280;37162;41.724;13.346;2023-03-12T08:19:43;95971.72;;;17.39;61.28
51123;BME280;37162;41.724;13.346;2023-03-12T08:22:08;95977.94;;;17.45;60.58
51123;BME280;37162;41.724;13.346;2023-03-12T08:24:34;95988.50;;;17.51;60.74
51123;BME280;37162;41.724;13.346;2023-03-12T08:27:00;95988.78;;;17.55;60.36
51123;BME280;37162;41.724;13.346;2023-03-12T08:29:25;95994.22;;;17.60;59.04
51123;BME280;37162;41.724;13.346;2023-03-12T08:31:51;96000.44;;;17.66;58.52
51123;BME280;37162;41.724;13.346;2023-03-12T08:34:16;95995.88;;;17.66;58.59
51123;BME280;37162;41.724;13.346;2023-03-12T08:36:42;96002.47;;;17.80;59.42
51123;BME280;37162;41.724;13.346;2023-03-12T08:39:07;96004.69;;;17.88;59.33
51123;BME280;37162;41.724;13.346;2023-03-12T08:41:33;96010.63;;;17.96;59.58
51123;BME280;37162;41.724;13.346;2023-03-12T08:43:58;96002.59;;;18.01;58.95
51123;BME280;37162;41.724;13.346;2023-03-12T08:46:24;95999.91;;;18.01;57.75
51123;BME280;37162;41.724;13.346;2023-03-12T08:48:49;96001.88;;;18.10;57.54
51123;BME280;37162;41.724;13.346;2023-03-12T08:51:15;96009.44;;;18.13;58.06
51123;BME280;37162;41.724;13.346;2023-03-12T08:53:41;96007.88;;;18.23;59.27
51123;BME280;37162;41.724;13.346;2023-03-12T08:56:07;96007.28;;;18.16;56.95
51123;BME280;37162;41.724;13.346;2023-03-12T08:58:32;96003.00;;;18.20;58.29
51123;BME280;37162;41.724;13.346;2023-03-12T09:00:57;96015.19;;;18.32;57.87
51123;BME280;37162;41.724;13.346;2023-03-12T09:03:24;96017.91;;;18.37;56.99
51123;BME280;37162;41.724;13.346;2023-03-12T09:05:50;96019.81;;;18.42;56.93
51123;BME280;37162;41.724;13.346;2023-03-12T09:08:25;96021.13;;;18.39;56.58
51123;BME280;37162;41.724;13.346;2023-03-12T09:10:51;96019.53;;;18.44;56.68
51123;BME280;37162;41.724;13.346;2023-03-12T09:13:16;96029.56;;;18.53;57.47
51123;BME280;37162;41.724;13.346;2023-03-12T09:15:42;96031.47;;;18.58;57.62
51123;BME280;37162;41.724;13.346;2023-03-12T09:18:07;96033.91;;;18.59;56.62
51123;BME280;37162;41.724;13.346;2023-03-12T09:20:33;96030.97;;;18.66;56.70
51123;BME280;37162;41.724;13.346;2023-03-12T09:22:58;96035.56;;;18.65;56.21
51123;BME280;37162;41.724;13.346;2023-03-12T09:25:23;96028.09;;;18.73;56.68
51123;BME280;37162;41.724;13.346;2023-03-12T09:27:49;96036.19;;;18.78;57.01
51123;BME280;37162;41.724;13.346;2023-03-12T09:30:17;96034.31;;;18.78;56.04
51123;BME280;37162;41.724;13.346;2023-03-12T09:32:44;96033.72;;;18.71;55.02
51123;BME280;37162;41.724;13.346;2023-03-12T09:35:10;96034.84;;;18.80;55.78
51123;BME280;37162;41.724;13.346;2023-03-12T09:37:36;96027.56;;;18.81;55.06
51123;BME280;37162;41.724;13.346;2023-03-12T09:40:03;96027.34;;;18.87;56.23
51123;BME280;37162;41.724;13.346;2023-03-12T09:42:41;96026.28;;;18.94;57.20
51123;BME280;37162;41.724;13.346;2023-03-12T09:45:14;96028.19;;;18.98;57.00
51123;BME280;37162;41.724;13.346;2023-03-12T09:47:56;96040.06;;;19.07;56.95
51123;BME280;37162;41.724;13.346;2023-03-12T09:50:42;96042.00;;;19.17;56.73
51123;BME280;37162;41.724;13.346;2023-03-12T09:53:21;96035.00;;;19.26;56.81
51123;BME280;37162;41.724;13.346;2023-03-12T09:55:52;96038.53;;;19.32;55.88
51123;BME280;37162;41.724;13.346;2023-03-12T09:58:28;96042.84;;;19.38;56.48
51123;BME280;37162;41.724;13.346;2023-03-12T10:15:22;96044.28;;;19.66;54.70
51123;BME280;37162;41.724;13.346;2023-03-12T10:18:07;96041.31;;;19.62;54.52
51123;BME280;37162;41.724;13.346;2023-03-12T10:23:27;96046.97;;;19.71;53.67
51123;BME280;37162;41.724;13.346;2023-03-12T10:28:45;96048.63;;;19.72;53.02
51123;BME280;37162;41.724;13.346;2023-03-12T10:31:31;96051.56;;;19.71;54.16
51123;BME280;37162;41.724;13.346;2023-03-12T10:34:00;96054.25;;;19.76;54.31
51123;BME280;37162;41.724;13.346;2023-03-12T10:36:44;96056.97;;;19.86;54.75
51123;BME280;37162;41.724;13.346;2023-03-12T10:39:16;96054.53;;;19.84;53.43
51123;BME280;37162;41.724;13.346;2023-03-12T10:41:44;96058.59;;;19.72;51.12
51123;BME280;37162;41.724;13.346;2023-03-12T10:44:17;96064.78;;;19.87;53.84
51123;BME280;37162;41.724;13.346;2023-03-12T10:51:56;96062.91;;;19.93;50.02
51123;BME280;37162;41.724;13.346;2023-03-12T10:54:28;96072.59;;;19.99;53.02
51123;BME280;37162;41.724;13.346;2023-03-12T10:56:54;96067.50;;;19.98;52.53
51123;BME280;37162;41.724;13.346;2023-03-12T10:59:21;96068.84;;;20.00;53.19
51123;BME280;37162;41.724;13.346;2023-03-12T11:01:49;96065.59;;;20.03;53.24
51123;BME280;37162;41.724;13.346;2023-03-12T11:04:24;96071.00;;;20.03;49.97
51123;BME280;37162;41.724;13.346;2023-03-12T11:09:37;96072.06;;;20.02;50.87
51123;BME280;37162;41.724;13.346;2023-03-12T11:12:22;96053.47;;;20.01;52.12
51123;BME280;37162;41.724;13.346;2023-03-12T11:14:48;96061.84;;;20.04;53.00
51123;BME280;37162;41.724;13.346;2023-03-12T11:17:25;96069.66;;;20.01;51.76
51123;BME280;37162;41.724;13.346;2023-03-12T11:19:51;96075.84;;;19.96;52.84
51123;BME280;37162;41.724;13.346;2023-03-12T11:22:29;96066.97;;;19.90;54.31
51123;BME280;37162;41.724;13.346;2023-03-12T11:25:00;96056.69;;;19.77;55.12
51123;BME280;37162;41.724;13.346;2023-03-12T11:27:40;96071.50;;;19.80;55.60
51123;BME280;37162;41.724;13.346;2023-03-12T11:30:10;96068.81;;;19.75;55.90
51123;BME280;37162;41.724;13.346;2023-03-12T11:32:41;96074.47;;;19.73;56.15
51123;BME280;37162;41.724;13.346;2023-03-12T11:35:13;96066.69;;;19.77;56.57
51123;BME280;37162;41.724;13.346;2023-03-12T11:48:58;96062.00;;;19.57;56.48
51123;BME280;37162;41.724;13.346;2023-03-12T11:57:13;96072.16;;;19.24;57.80
51123;BME280;37162;41.724;13.346;2023-03-12T12:02:40;96101.94;;;18.92;54.41
51123;BME280;37162;41.724;13.346;2023-03-12T12:13:35;96093.47;;;18.73;58.97
51123;BME280;37162;41.724;13.346;2023-03-12T12:26:49;96101.91;;;18.50;60.45
51123;BME280;37162;41.724;13.346;2023-03-12T12:31:54;96098.34;;;18.44;60.72
51123;BME280;37162;41.724;13.346;2023-03-12T12:42:35;96106.59;;;18.27;60.54
51123;BME280;37162;41.724;13.346;2023-03-12T12:45:10;96110.31;;;18.21;59.62
51123;BME280;37162;41.724;13.346;2023-03-12T12:47:44;96106.78;;;18.21;60.61
51123;BME280;37162;41.724;13.346;2023-03-12T12:50:16;96111.63;;;18.19;61.01
51123;BME280;37162;41.724;13.346;2023-03-12T12:52:46;96102.13;;;18.11;61.36
51123;BME280;37162;41.724;13.346;2023-03-12T12:55:32;96112.63;;;18.07;61.73
51123;BME280;37162;41.724;13.346;2023-03-12T13:03:20;96109.81;;;17.97;61.97
51123;BME280;37162;41.724;13.346;2023-03-12T13:09:21;96120.88;;;18.01;62.15
51123;BME280;37162;41.724;13.346;2023-03-12T13:11:37;96120.06;;;18.00;62.69
51123;BME280;37162;41.724;13.346;2023-03-12T13:16:37;96105.78;;;17.95;61.53
51123;BME280;37162;41.724;13.346;2023-03-12T13:29:43;96107.56;;;17.84;62.24
51123;BME280;37162;41.724;13.346;2023-03-12T13:46:00;96146.75;;;17.80;62.79
51123;BME280;37162;41.724;13.346;2023-03-12T13:48:26;96156.91;;;17.78;62.93
51123;BME280;37162;41.724;13.346;2023-03-12T13:50:55;96168.75;;;17.77;63.20
51123;BME280;37162;41.724;13.346;2023-03-12T13:53:31;96166.78;;;17.72;63.10
51123;BME280;37162;41.724;13.346;2023-03-12T13:56:09;96170.06;;;17.74;63.33
51123;BME280;37162;41.724;13.346;2023-03-12T13:58:41;96165.97;;;17.72;63.33
51123;BME280;37162;41.724;13.346;2023-03-12T14:01:18;96177.53;;;17.72;63.19
51123;BME280;37162;41.724;13.346;2023-03-12T14:03:51;96182.34;;;17.70;63.17
51123;BME280;37162;41.724;13.346;2023-03-12T14:06:21;96192.28;;;17.70;63.25
51123;BME280;37162;41.724;13.346;2023-03-12T14:17:14;96195.47;;;17.67;63.94
51123;BME280;37162;41.724;13.346;2023-03-12T14:19:45;96196.53;;;17.66;64.11
51123;BME280;37162;41.724;13.346;2023-03-12T14:22:12;96199.22;;;17.66;64.17
51123;BME280;37162;41.724;13.346;2023-03-12T14:24:40;96210.19;;;17.64;63.88
51123;BME280;37162;41.724;13.346;2023-03-12T14:27:14;96216.63;;;17.63;64.01
51123;BME280;37162;41.724;13.346;2023-03-12T14:29:49;96213.13;;;17.62;64.05
51123;BME280;37162;41.724;13.346;2023-03-12T14:32:20;96216.91;;;17.61;63.85
51123;BME280;37162;41.724;13.346;2023-03-12T15:34:55;96319.72;;;17.57;65.28
51123;BME280;37162;41.724;13.346;2023-03-12T15:39:48;96324.84;;;17.58;65.10
51123;BME280;37162;41.724;13.346;2023-03-12T15:42:16;96327.50;;;17.58;64.84
51123;BME280;37162;41.724;13.346;2023-03-12T15:44:50;96332.56;;;17.55;64.72
51123;BME280;37162;41.724;13.346;2023-03-12T15:47:21;96326.22;;;17.61;64.65
51123;BME280;37162;41.724;13.346;2023-03-12T15:50:02;96332.41;;;17.61;65.30
51123;BME280;37162;41.724;13.346;2023-03-12T15:52:31;96334.50;;;17.59;65.19
51123;BME280;37162;41.724;13.346;2023-03-12T15:57:49;96345.75;;;17.56;65.19
51123;BME280;37162;41.724;13.346;2023-03-12T16:00:25;96344.97;;;17.56;65.02
51123;BME280;37162;41.724;13.346;2023-03-12T16:03:00;96354.88;;;17.55;65.05